LiveATC.Net - Listen to live air traffic control over the Internet!


ICAO: KMMV  IATA: MMV   Airport: Mc Minnville Municipal Airport
City: Mc Minnville   State/Province: Oregon
Country: United States   Continent: North America
KMMV METAR Weather: KMMV 281853Z AUTO 23007KT 10SM CLR 06/03 A2994 RMK AO2 SLP140 T00610033
KMMV ADS-B Flight Tracking (ADSBExchange)
KMMV Flight Activity (FlightAware)
KMMV Airport Info   (iFlightPlanner)
KMMV VFR Sectional Chart   (iFlightPlanner) 
KMMV IFR Low Altitude Chart   (iFlightPlanner) 
KMMV IFR High Altitude Chart   (iFlightPlanner) 

KMMV CTAF
Feed Status: UP   Listeners: 0
Listen in your browser - HTML5 player (in browser, HTML5)
Click here to listen with your own player (launches your MP3 player)
Archive Access: KMMV CTAF
FacilityFrequency
Mc Minnville CTAF123.000

NOTICE

Unauthorized use prohibited. See LiveATC.net Terms of Service


Airport/ARTCC Code
Frequency Search
(e.g., 124.400, 128.75)
Site-wide search
 


Browse Feeds
Top 50 Feeds
HF Oceanic Feeds
Coverage Map
Bad Weather Areas

LiveATC FAQ
Offer LiveATC feed
Contact LiveATC.net
Press Inquiries

LiveATC on iPhone
LiveATC on Android

LiveATC Mobile
(Mobile browser)

ATC Audio Archives
Interesting Recordings

LiveATC Forums


Home Page
About LiveATC.net


Terms of Use
Privacy Policy

AIRMETs/SIGMETs

FAA Airport Status
NAS Status
Arrival Demand


Server Software By:
Icecast.org
Liquidsoap